Time;durP1;ratioP1;P1;durP2;ratioP2;P2;SDS_P1;SDS_P2;PMS_P1;PMS_P2;Temp;Humidity;BMP_temperature;BMP_pressure;BME280_temperature;BME280_humidity;BME280_pressure;Samples;Min_cycle;Max_cycle;Signal;HPM_P1;HPM_P2
2023/06/22 00:00:56;;;;;;;7.03;2.42;;;26.10;99.90;;;;;;4956708;23;20559;-49
2023/06/22 00:03:26;;;;;;;13.15;2.92;;;26.10;99.90;;;;;;4961028;28;20154;-49
2023/06/22 00:05:52;;;;;;;9.30;3.22;;;26.20;99.90;;;;;;4958476;28;20444;-49
2023/06/22 00:08:19;;;;;;;5.97;2.47;;;26.20;99.90;;;;;;4947532;28;20067;-50
2023/06/22 00:10:46;;;;;;;4.15;2.22;;;26.20;99.90;;;;;;4960992;28;20395;-50
2023/06/22 00:13:12;;;;;;;6.75;2.92;;;26.20;99.90;;;;;;4949501;28;20576;-50
2023/06/22 00:15:40;;;;;;;7.93;2.40;;;26.20;99.90;;;;;;4954494;28;20034;-51
2023/06/22 00:18:10;;;;;;;4.32;2.78;;;26.20;99.90;;;;;;4947255;28;20106;-51
2023/06/22 00:20:39;;;;;;;6.00;1.90;;;26.20;99.90;;;;;;4950584;29;20389;-51
2023/06/22 00:23:08;;;;;;;5.85;3.17;;;26.20;99.90;;;;;;4957069;29;20110;-50
2023/06/22 00:25:40;;;;;;;3.55;1.52;;;26.10;99.90;;;;;;4956037;29;20391;-51
2023/06/22 00:28:07;;;;;;;8.23;2.00;;;26.10;99.90;;;;;;4956273;29;20481;-50
2023/06/22 00:30:33;;;;;;;10.13;2.63;;;26.00;99.90;;;;;;4956102;29;20082;-51
2023/06/22 00:32:59;;;;;;;4.95;2.28;;;26.10;99.90;;;;;;4938700;29;20441;-50
2023/06/22 00:35:29;;;;;;;6.00;2.15;;;26.00;99.90;;;;;;4951304;29;20070;-51
2023/06/22 00:38:00;;;;;;;3.35;2.03;;;26.10;99.90;;;;;;4954583;29;20043;-51
2023/06/22 00:40:27;;;;;;;3.40;1.83;;;26.10;99.90;;;;;;4956028;29;20027;-51
2023/06/22 00:42:53;;;;;;;4.88;2.42;;;26.10;99.90;;;;;;4956667;29;20031;-51
2023/06/22 00:45:19;;;;;;;7.75;2.55;;;26.10;99.90;;;;;;4955021;29;20042;-51
2023/06/22 00:47:45;;;;;;;3.42;1.95;;;26.10;99.90;;;;;;4956038;29;20392;-51
2023/06/22 00:50:20;;;;;;;8.50;3.17;;;26.10;99.90;;;;;;4956167;29;20023;-51
2023/06/22 00:52:56;;;;;;;7.93;2.63;;;26.20;99.90;;;;;;4948779;29;20027;-51
2023/06/22 00:55:23;;;;;;;8.40;2.60;;;26.20;99.90;;;;;;4937401;29;20031;-51
2023/06/22 00:57:49;;;;;;;14.13;3.28;;;26.20;99.90;;;;;;4936900;29;20040;-51
2023/06/22 01:02:45;;;;;;;6.97;2.70;;;26.00;99.90;;;;;;4916539;29;20048;-54
2023/06/22 01:05:14;;;;;;;9.05;3.17;;;26.00;99.90;;;;;;4918553;29;20441;-52
2023/06/22 01:08:00;;;;;;;9.02;2.65;;;25.90;99.90;;;;;;4918504;29;20035;-53
2023/06/22 01:10:43;;;;;;;8.07;2.75;;;25.90;99.90;;;;;;4932914;29;20099;-52
2023/06/22 01:13:18;;;;;;;4.60;2.40;;;25.90;99.90;;;;;;4918687;29;20024;-53
2023/06/22 01:15:51;;;;;;;5.07;2.50;;;25.90;99.90;;;;;;4918648;29;20366;-53
2023/06/22 01:18:19;;;;;;;10.40;6.30;;;25.90;99.90;;;;;;4932279;29;20051;-53
2023/06/22 01:20:46;;;;;;;7.95;3.80;;;25.90;99.90;;;;;;4918385;29;20489;-53
2023/06/22 01:23:36;;;;;;;11.50;3.28;;;25.80;99.90;;;;;;4917781;29;20111;-53
2023/06/22 01:26:32;;;;;;;2.95;1.50;;;25.80;99.90;;;;;;4910364;29;20036;-53
2023/06/22 01:28:59;;;;;;;4.80;1.98;;;25.80;99.90;;;;;;4918420;29;20516;-53
2023/06/22 01:31:27;;;;;;;2.95;1.60;;;25.80;99.90;;;;;;4918420;29;20028;-53
2023/06/22 01:33:58;;;;;;;4.82;1.63;;;25.80;99.90;;;;;;4918234;29;20485;-53
2023/06/22 01:36:25;;;;;;;2.25;1.40;;;25.80;99.90;;;;;;4918650;29;20071;-54
2023/06/22 01:38:53;;;;;;;3.58;1.63;;;25.80;99.90;;;;;;4918101;29;20396;-54
2023/06/22 01:41:20;;;;;;;2.50;1.42;;;25.80;99.90;;;;;;4918033;29;20024;-54
2023/06/22 01:43:48;;;;;;;3.70;1.42;;;25.80;99.90;;;;;;4918148;29;20146;-54
2023/06/22 01:46:15;;;;;;;2.50;1.30;;;25.90;99.90;;;;;;4918288;29;20028;-54
2023/06/22 01:48:41;;;;;;;3.35;1.70;;;25.90;99.90;;;;;;4917898;29;20024;-54
2023/06/22 01:51:07;;;;;;;5.05;1.80;;;25.90;99.90;;;;;;4918357;29;20035;-54
2023/06/22 01:53:32;;;;;;;2.42;1.52;;;26.00;99.90;;;;;;4916041;29;20063;-53
2023/06/22 01:55:59;;;;;;;3.42;2.03;;;26.00;99.90;;;;;;4912776;29;20036;-54
2023/06/22 01:58:29;;;;;;;4.47;2.13;;;26.00;99.90;;;;;;4917420;29;20118;-54
2023/06/22 02:01:11;;;;;;;4.03;1.80;;;26.10;99.90;;;;;;4933432;23;20059;-50
2023/06/22 02:03:49;;;;;;;4.57;1.60;;;26.10;99.90;;;;;;4936405;29;20032;-50
2023/06/22 02:06:19;;;;;;;3.90;1.52;;;26.10;99.90;;;;;;4936907;29;20027;-50
2023/06/22 02:08:55;;;;;;;3.20;1.50;;;26.20;99.90;;;;;;4936665;29;20458;-50
2023/06/22 02:11:22;;;;;;;3.75;1.70;;;26.20;99.90;;;;;;4936431;29;20024;-50
2023/06/22 02:13:49;;;;;;;3.88;1.40;;;26.20;99.90;;;;;;4936693;29;20090;-50
2023/06/22 02:16:16;;;;;;;2.08;1.10;;;26.20;99.90;;;;;;4936624;29;20453;-50
2023/06/22 02:18:53;;;;;;;3.05;1.05;;;26.20;99.90;;;;;;4936329;29;20039;-51
2023/06/22 02:21:20;;;;;;;1.60;1.45;;;26.30;99.90;;;;;;4936391;29;20086;-53
2023/06/22 02:23:45;;;;;;;5.88;1.48;;;26.30;99.90;;;;;;4936446;29;20063;-51
2023/06/22 02:26:12;;;;;;;3.88;1.50;;;26.30;99.90;;;;;;4936132;29;20051;-51
2023/06/22 02:28:38;;;;;;;6.05;1.42;;;26.30;99.90;;;;;;4936637;29;20031;-50
2023/06/22 02:31:04;;;;;;;3.03;1.27;;;26.30;99.90;;;;;;4935163;29;20040;-51
2023/06/22 02:33:30;;;;;;;2.53;1.23;;;26.30;99.90;;;;;;4934898;29;20046;-51
2023/06/22 02:35:56;;;;;;;5.05;1.40;;;26.30;99.90;;;;;;4935562;29;20039;-51
2023/06/22 02:38:24;;;;;;;2.90;1.40;;;26.40;99.90;;;;;;4935527;29;20042;-50
2023/06/22 02:40:50;;;;;;;3.08;1.50;;;26.30;99.90;;;;;;4950404;29;20027;-50
2023/06/22 02:43:16;;;;;;;4.07;1.75;;;26.30;99.90;;;;;;4918927;29;20027;-50
2023/06/22 02:45:42;;;;;;;2.85;1.42;;;26.30;99.90;;;;;;4935621;29;20024;-50
2023/06/22 02:48:08;;;;;;;5.05;1.52;;;26.40;99.90;;;;;;4935844;29;20083;-54
2023/06/22 02:50:34;;;;;;;2.65;1.50;;;26.40;99.90;;;;;;4936012;29;20023;-50
2023/06/22 02:52:59;;;;;;;2.90;1.52;;;26.40;99.90;;;;;;4935746;29;20062;-51
2023/06/22 02:55:25;;;;;;;2.50;1.40;;;26.40;99.90;;;;;;4934454;29;20016;-50
2023/06/22 02:57:52;;;;;;;6.72;1.80;;;26.40;99.90;;;;;;4935791;29;20458;-50
2023/06/22 03:02:48;;;;;;;3.65;1.80;;;26.40;99.90;;;;;;4915280;29;20052;-46
2023/06/22 03:05:17;;;;;;;3.13;1.25;;;26.40;99.90;;;;;;4916538;29;20040;-48
2023/06/22 03:07:46;;;;;;;2.70;1.58;;;26.40;99.90;;;;;;4916756;29;20111;-46
2023/06/22 03:10:13;;;;;;;2.85;1.23;;;26.40;99.90;;;;;;4916277;29;20028;-46
2023/06/22 03:12:39;;;;;;;2.75;1.63;;;26.40;99.90;;;;;;4916879;29;20485;-46
2023/06/22 03:15:07;;;;;;;4.63;2.13;;;26.40;99.90;;;;;;4916519;29;20060;-46
2023/06/22 03:17:33;;;;;;;7.78;2.47;;;26.50;99.90;;;;;;4916396;29;20055;-47
2023/06/22 03:19:59;;;;;;;8.52;1.98;;;26.50;99.90;;;;;;4916531;29;20411;-46
2023/06/22 03:22:26;;;;;;;6.20;2.00;;;26.50;99.90;;;;;;4916500;29;20024;-46
2023/06/22 03:24:51;;;;;;;7.53;2.42;;;26.40;99.90;;;;;;4916278;29;20042;-46
2023/06/22 03:27:18;;;;;;;6.45;2.08;;;26.40;99.90;;;;;;4916194;29;20020;-46
2023/06/22 03:29:44;;;;;;;6.87;2.20;;;26.30;99.90;;;;;;4916369;29;20024;-46
2023/06/22 03:32:10;;;;;;;8.10;2.22;;;26.30;99.90;;;;;;4916411;29;20028;-46
2023/06/22 03:34:36;;;;;;;4.60;2.08;;;26.20;99.90;;;;;;4916317;29;20028;-47
2023/06/22 03:37:02;;;;;;;6.38;2.40;;;26.20;99.90;;;;;;4914878;29;20043;-47
2023/06/22 03:39:28;;;;;;;10.00;2.27;;;26.10;99.90;;;;;;4916124;29;20028;-46
2023/06/22 03:41:54;;;;;;;6.07;2.70;;;26.10;99.90;;;;;;4915961;29;20273;-47
2023/06/22 03:44:20;;;;;;;9.23;2.10;;;26.00;99.90;;;;;;4915915;29;20055;-47
2023/06/22 03:46:46;;;;;;;3.92;2.08;;;25.90;99.90;;;;;;4916230;29;20032;-47
2023/06/22 03:49:11;;;;;;;8.85;2.10;;;25.90;99.90;;;;;;4916148;29;20021;-47
2023/06/22 03:51:37;;;;;;;5.10;1.95;;;25.90;99.90;;;;;;4915850;29;20032;-47
2023/06/22 03:54:03;;;;;;;2.92;1.42;;;25.80;99.90;;;;;;4916036;29;20107;-46
2023/06/22 03:56:29;;;;;;;8.20;2.13;;;25.80;99.90;;;;;;4915911;29;20032;-46
2023/06/22 03:58:54;;;;;;;11.32;2.65;;;25.80;99.90;;;;;;4915910;29;20035;-46
2023/06/22 04:01:20;;;;;;;9.65;2.38;;;25.80;99.90;;;;;;4916079;29;20044;-47
2023/06/22 04:03:48;;;;;;;9.77;2.50;;;25.80;99.90;;;;;;4915509;29;20099;-47
2023/06/22 04:06:14;;;;;;;5.65;2.53;;;25.80;99.90;;;;;;4916224;29;20439;-46
2023/06/22 04:08:40;;;;;;;6.97;1.40;;;25.80;99.90;;;;;;4915921;29;20055;-46
2023/06/22 04:11:06;;;;;;;6.95;2.28;;;25.70;99.90;;;;;;4915741;29;20354;-47
2023/06/22 04:13:32;;;;;;;4.93;1.80;;;25.70;99.90;;;;;;4915692;29;20092;-47
2023/06/22 04:15:58;;;;;;;4.53;2.03;;;25.70;99.90;;;;;;4930275;29;20531;-46
2023/06/22 04:18:23;;;;;;;6.03;2.47;;;25.60;99.90;;;;;;4929999;29;20473;-46
2023/06/22 04:20:49;;;;;;;7.38;2.55;;;25.60;99.90;;;;;;4915963;29;20087;-46
2023/06/22 04:23:15;;;;;;;7.57;2.33;;;25.50;99.90;;;;;;4915734;29;20039;-47
2023/06/22 04:25:41;;;;;;;7.35;2.28;;;25.60;99.90;;;;;;4914577;29;20172;-46
2023/06/22 04:28:12;;;;;;;12.48;3.05;;;25.50;99.90;;;;;;4914183;29;20024;-46
2023/06/22 04:30:45;;;;;;;6.28;2.35;;;25.50;99.90;;;;;;4915902;29;20123;-47
2023/06/22 04:33:15;;;;;;;4.85;2.13;;;25.50;99.90;;;;;;4915555;29;20180;-46
2023/06/22 04:35:41;;;;;;;12.57;2.80;;;25.50;99.90;;;;;;4915872;29;20184;-46
2023/06/22 04:38:07;;;;;;;9.93;2.70;;;25.40;99.90;;;;;;4915476;29;20040;-46
2023/06/22 04:40:33;;;;;;;8.27;2.65;;;25.40;99.90;;;;;;4915422;29;20165;-47
2023/06/22 04:43:02;;;;;;;6.55;2.78;;;25.40;99.90;;;;;;4915525;29;20103;-47
2023/06/22 04:45:29;;;;;;;9.60;2.80;;;25.40;99.90;;;;;;4915351;29;20039;-46
2023/06/22 04:47:55;;;;;;;9.70;2.33;;;25.40;99.90;;;;;;4915494;29;20024;-47
2023/06/22 04:50:21;;;;;;;8.45;2.55;;;25.30;99.90;;;;;;4915466;29;20025;-46
2023/06/22 04:52:47;;;;;;;7.57;2.22;;;25.30;99.90;;;;;;4915452;29;20462;-46
2023/06/22 04:55:18;;;;;;;9.98;2.50;;;25.20;99.90;;;;;;4915061;29;20099;-46
2023/06/22 04:57:50;;;;;;;8.07;1.95;;;25.20;99.90;;;;;;4917926;29;20116;-47
2023/06/22 05:00:22;;;;;;;10.95;2.63;;;25.20;99.90;;;;;;4918950;29;20075;-47
2023/06/22 05:02:49;;;;;;;7.65;2.90;;;25.10;99.90;;;;;;4933036;29;20508;-46
2023/06/22 05:05:15;;;;;;;6.43;2.75;;;25.10;99.90;;;;;;4918938;29;20021;-46
2023/06/22 05:07:48;;;;;;;8.70;2.42;;;25.10;99.90;;;;;;4918709;29;20478;-46
2023/06/22 05:10:14;;;;;;;10.80;2.22;;;25.10;99.90;;;;;;4918639;29;20028;-46
2023/06/22 05:12:41;;;;;;;8.52;3.20;;;25.10;99.90;;;;;;4918747;29;20482;-46
2023/06/22 05:15:08;;;;;;;7.45;3.28;;;25.00;99.90;;;;;;4918603;29;20044;-46
2023/06/22 05:17:35;;;;;;;9.13;3.15;;;25.00;99.90;;;;;;4918512;29;20051;-46
2023/06/22 05:20:02;;;;;;;11.27;2.88;;;24.90;99.90;;;;;;4918407;29;20478;-46
2023/06/22 05:22:28;;;;;;;16.05;3.38;;;24.90;99.90;;;;;;4918377;29;20039;-46
2023/06/22 05:24:53;;;;;;;11.93;3.83;;;24.80;99.90;;;;;;4918565;29;20025;-46
2023/06/22 05:27:19;;;;;;;7.38;2.88;;;24.80;99.90;;;;;;4918315;29;20020;-46
2023/06/22 05:29:45;;;;;;;11.77;2.72;;;24.80;99.90;;;;;;4918802;29;20087;-46
2023/06/22 05:32:11;;;;;;;10.23;2.80;;;24.70;99.90;;;;;;4918350;29;20040;-46
2023/06/22 05:34:37;;;;;;;11.15;3.70;;;24.70;99.90;;;;;;4918242;29;20032;-46
2023/06/22 05:37:03;;;;;;;11.13;2.85;;;24.70;99.90;;;;;;4918073;29;20051;-46
2023/06/22 05:39:29;;;;;;;11.73;2.70;;;24.70;99.90;;;;;;4918190;29;20024;-46
2023/06/22 05:41:55;;;;;;;10.27;3.08;;;24.70;99.90;;;;;;4917999;29;20017;-47
2023/06/22 05:44:20;;;;;;;10.98;3.22;;;24.60;99.90;;;;;;4918146;29;20035;-46
2023/06/22 05:46:47;;;;;;;10.65;3.10;;;24.50;99.90;;;;;;4918242;29;20103;-51
2023/06/22 05:49:14;;;;;;;11.20;3.63;;;24.50;99.90;;;;;;4918010;29;20027;-45
2023/06/22 05:51:40;;;;;;;10.95;3.75;;;24.50;99.90;;;;;;4917935;29;20039;-45
2023/06/22 05:54:07;;;;;;;15.98;3.92;;;24.50;99.90;;;;;;4917955;29;20030;-45
2023/06/22 05:56:33;;;;;;;13.63;4.03;;;24.50;99.90;;;;;;4916450;29;20076;-45
2023/06/22 05:58:59;;;;;;;18.10;4.63;;;24.40;99.90;;;;;;4917866;29;20394;-45
2023/06/22 06:01:25;;;;;;;15.30;4.13;;;24.40;99.90;;;;;;4917582;29;20410;-45
2023/06/22 06:03:52;;;;;;;8.30;3.72;;;24.40;99.90;;;;;;4917582;29;20071;-45
2023/06/22 06:06:21;;;;;;;10.07;4.25;;;24.40;99.90;;;;;;4917787;29;20119;-45
2023/06/22 06:08:46;;;;;;;12.48;4.22;;;24.40;99.90;;;;;;4917828;29;20031;-45
2023/06/22 06:11:12;;;;;;;8.48;3.17;;;24.40;99.90;;;;;;4917534;29;20103;-45
2023/06/22 06:13:38;;;;;;;11.82;3.42;;;24.50;99.90;;;;;;4917605;29;20035;-46
2023/06/22 06:16:04;;;;;;;16.58;3.30;;;24.50;99.90;;;;;;4917715;29;20091;-46
2023/06/22 06:18:30;;;;;;;8.05;1.83;;;24.50;99.90;;;;;;4917279;29;20090;-48
2023/06/22 06:20:56;;;;;;;3.78;1.80;;;24.50;99.90;;;;;;4917568;29;20032;-47
2023/06/22 06:23:22;;;;;;;4.68;1.63;;;24.50;99.90;;;;;;4917321;29;20040;-47
2023/06/22 06:25:47;;;;;;;7.78;1.95;;;24.60;99.90;;;;;;4917465;29;20056;-47
2023/06/22 06:28:13;;;;;;;5.70;1.67;;;24.70;99.90;;;;;;4917322;29;20052;-47
2023/06/22 06:30:40;;;;;;;4.88;1.85;;;24.70;99.90;;;;;;4917119;29;20024;-48
2023/06/22 06:33:08;;;;;;;10.02;2.47;;;24.70;99.90;;;;;;4917233;29;20024;-48
2023/06/22 06:35:35;;;;;;;8.77;2.28;;;24.80;99.90;;;;;;4931784;29;20111;-47
2023/06/22 06:38:00;;;;;;;10.68;2.33;;;24.90;99.90;;;;;;4917151;29;20084;-47
2023/06/22 06:40:26;;;;;;;4.60;1.80;;;25.00;99.90;;;;;;4930969;29;20506;-48
2023/06/22 06:42:52;;;;;;;8.02;2.22;;;25.00;99.90;;;;;;4917131;29;20032;-47
2023/06/22 06:45:22;;;;;;;8.88;2.00;;;25.10;99.90;;;;;;4917103;29;20397;-48
2023/06/22 06:47:48;;;;;;;6.95;2.38;;;25.10;99.90;;;;;;4916848;29;20477;-48
2023/06/22 06:50:14;;;;;;;8.98;2.90;;;25.20;99.90;;;;;;4931402;29;20035;-47
2023/06/22 06:52:41;;;;;;;6.60;2.45;;;25.30;99.90;;;;;;4915735;29;20028;-47
2023/06/22 06:55:11;;;;;;;5.27;2.57;;;25.30;99.90;;;;;;4915471;29;20032;-46
2023/06/22 06:57:41;;;;;;;6.00;2.25;;;25.40;99.90;;;;;;4916829;29;20127;-46
2023/06/22 07:00:13;;;;;;;6.72;2.20;;;25.40;99.90;;;;;;4916452;29;20080;-47
2023/06/22 07:02:41;;;;;;;5.22;3.05;;;25.40;99.90;;;;;;4916498;29;20051;-47
2023/06/22 07:05:07;;;;;;;7.28;3.03;;;25.50;99.90;;;;;;4916619;29;20046;-47
2023/06/22 07:07:33;;;;;;;8.25;2.45;;;25.60;99.90;;;;;;4916752;29;20031;-47
2023/06/22 07:09:59;;;;;;;5.63;3.08;;;25.60;99.90;;;;;;4916509;29;20028;-47
2023/06/22 07:12:25;;;;;;;13.82;5.82;;;25.70;99.90;;;;;;4906478;29;20063;-46
2023/06/22 07:14:52;;;;;;;15.60;5.35;;;25.70;99.90;;;;;;4916462;29;20064;-47
2023/06/22 07:17:17;;;;;;;6.00;2.80;;;25.70;99.90;;;;;;4916625;29;20369;-46
2023/06/22 07:19:43;;;;;;;8.65;4.25;;;25.80;99.90;;;;;;4915801;29;20032;-46
2023/06/22 07:22:09;;;;;;;12.65;3.75;;;25.80;99.90;;;;;;4916357;29;20068;-46
2023/06/22 07:24:35;;;;;;;10.82;3.08;;;25.90;99.90;;;;;;4916433;29;20540;-46
2023/06/22 07:27:02;;;;;;;10.35;4.30;;;25.90;99.90;;;;;;4915936;29;20043;-47
2023/06/22 07:29:27;;;;;;;6.45;3.13;;;25.90;99.90;;;;;;4916289;29;20035;-47
2023/06/22 07:31:56;;;;;;;10.25;4.55;;;26.00;99.90;;;;;;4916306;29;20028;-47
2023/06/22 07:34:22;;;;;;;8.18;4.25;;;26.00;99.90;;;;;;4916514;29;20487;-46
2023/06/22 07:36:48;;;;;;;9.25;4.65;;;26.00;99.90;;;;;;4914870;29;20032;-47
2023/06/22 07:39:14;;;;;;;8.82;4.38;;;26.00;99.90;;;;;;4916070;29;20485;-46
2023/06/22 07:41:43;;;;;;;10.77;3.50;;;26.10;99.90;;;;;;4930442;29;20035;-46
2023/06/22 07:44:09;;;;;;;9.32;4.15;;;26.10;99.90;;;;;;4916099;29;20035;-48
2023/06/22 07:46:35;;;;;;;13.00;3.72;;;26.10;99.90;;;;;;4916569;29;20540;-46
2023/06/22 07:49:01;;;;;;;6.60;3.60;;;26.10;99.90;;;;;;4914601;29;20035;-46
2023/06/22 07:51:27;;;;;;;10.35;3.40;;;26.10;99.90;;;;;;4915820;29;20040;-46
2023/06/22 07:53:53;;;;;;;11.20;3.08;;;26.20;99.90;;;;;;4916286;29;20380;-46
2023/06/22 07:56:20;;;;;;;7.97;4.07;;;26.20;99.90;;;;;;4930350;29;20378;-47
2023/06/22 07:58:46;;;;;;;9.25;3.58;;;26.20;99.90;;;;;;4915886;29;20796;-47
2023/06/22 08:01:13;;;;;;;9.23;3.13;;;26.20;99.90;;;;;;4915818;29;20056;-47
2023/06/22 08:03:40;;;;;;;12.30;2.90;;;26.20;99.90;;;;;;4915732;29;20553;-48
2023/06/22 08:06:09;;;;;;;8.25;2.60;;;26.20;99.90;;;;;;4915978;29;20108;-47
2023/06/22 08:08:38;;;;;;;10.90;3.30;;;26.20;99.90;;;;;;4915622;29;20084;-47
2023/06/22 08:11:04;;;;;;;9.05;3.33;;;26.20;99.90;;;;;;4915594;29;20429;-47
2023/06/22 08:13:30;;;;;;;10.85;2.78;;;26.20;99.90;;;;;;4915732;29;20028;-47
2023/06/22 08:15:55;;;;;;;9.07;2.70;;;26.20;99.90;;;;;;4915973;29;20024;-46
2023/06/22 08:18:21;;;;;;;8.80;2.92;;;26.20;99.90;;;;;;4915339;29;20032;-46
2023/06/22 08:20:47;;;;;;;8.70;4.07;;;26.30;99.90;;;;;;4915678;29;20035;-47
2023/06/22 08:23:13;;;;;;;8.63;2.97;;;26.30;99.90;;;;;;4915512;29;20060;-47
2023/06/22 08:25:39;;;;;;;9.52;3.33;;;26.30;99.90;;;;;;4915417;29;20025;-46
2023/06/22 08:28:05;;;;;;;5.70;3.08;;;26.30;99.90;;;;;;4915420;29;20076;-46
2023/06/22 08:30:31;;;;;;;10.85;3.33;;;26.30;99.90;;;;;;4915688;29;20024;-47
2023/06/22 08:32:56;;;;;;;6.60;2.75;;;26.40;99.90;;;;;;4918299;29;20474;-47
2023/06/22 08:35:23;;;;;;;11.88;3.50;;;26.40;99.90;;;;;;4919494;29;20436;-46
2023/06/22 08:37:54;;;;;;;14.45;3.55;;;26.40;99.90;;;;;;4919198;29;20501;-47
2023/06/22 08:40:20;;;;;;;9.38;3.70;;;26.40;99.90;;;;;;4918911;29;20051;-46
2023/06/22 08:42:46;;;;;;;10.93;4.18;;;26.40;99.90;;;;;;4919119;29;20160;-47
2023/06/22 08:45:13;;;;;;;26.08;5.10;;;26.40;99.90;;;;;;4919017;29;20039;-47
2023/06/22 08:47:41;;;;;;;8.73;3.78;;;26.40;99.90;;;;;;4919208;29;20060;-47
2023/06/22 08:50:08;;;;;;;8.05;4.25;;;26.40;99.90;;;;;;4918719;29;20028;-47
2023/06/22 08:52:34;;;;;;;8.32;3.13;;;26.40;99.90;;;;;;4918981;29;20043;-47
2023/06/22 08:55:00;;;;;;;10.52;4.60;;;26.40;99.90;;;;;;4918713;29;20552;-47
2023/06/22 08:57:26;;;;;;;9.98;4.63;;;26.40;99.90;;;;;;4918970;29;20099;-47
2023/06/22 08:59:52;;;;;;;7.03;3.65;;;26.40;99.90;;;;;;4918854;29;20048;-47
2023/06/22 09:02:19;;;;;;;11.07;3.65;;;26.40;99.90;;;;;;4917474;29;20095;-47
2023/06/22 09:04:46;;;;;;;8.02;3.78;;;26.40;99.90;;;;;;4918685;29;20115;-47
2023/06/22 09:07:12;;;;;;;18.85;4.55;;;26.40;99.90;;;;;;4918872;29;20042;-47
2023/06/22 09:09:37;;;;;;;9.80;3.38;;;26.40;99.90;;;;;;4918728;29;20548;-47
2023/06/22 09:12:04;;;;;;;8.90;3.15;;;26.50;99.90;;;;;;4918581;29;20054;-47
2023/06/22 09:14:30;;;;;;;12.63;3.80;;;26.50;99.90;;;;;;4918695;29;20028;-48
2023/06/22 09:16:55;;;;;;;9.75;4.63;;;26.50;99.90;;;;;;4918790;29;20053;-47
2023/06/22 09:19:21;;;;;;;10.60;4.32;;;26.50;99.90;;;;;;4918505;29;20044;-47
2023/06/22 09:21:47;;;;;;;10.70;5.15;;;26.50;99.90;;;;;;4918402;29;20028;-47
2023/06/22 09:24:13;;;;;;;12.93;5.03;;;26.50;99.90;;;;;;4918441;29;20024;-48
2023/06/22 09:26:39;;;;;;;7.55;3.58;;;26.50;99.90;;;;;;4918296;29;20028;-47
2023/06/22 09:29:08;;;;;;;9.25;3.30;;;26.50;99.90;;;;;;4917263;29;20451;-47
2023/06/22 09:31:33;;;;;;;7.03;3.10;;;26.50;99.90;;;;;;4918249;29;20179;-47
2023/06/22 09:33:59;;;;;;;12.80;4.43;;;26.60;99.90;;;;;;4918322;29;20532;-47
2023/06/22 09:36:25;;;;;;;11.73;5.10;;;26.60;99.90;;;;;;4918138;29;20059;-47
2023/06/22 09:38:58;;;;;;;7.53;3.65;;;26.60;99.90;;;;;;4918520;29;20434;-47
2023/06/22 09:41:24;;;;;;;8.13;3.67;;;26.60;99.90;;;;;;4918076;29;20026;-47
2023/06/22 09:43:50;;;;;;;7.47;3.92;;;26.60;99.90;;;;;;4917667;29;20063;-47
2023/06/22 09:46:16;;;;;;;8.65;3.97;;;26.60;99.90;;;;;;4917958;29;20076;-47
2023/06/22 09:48:42;;;;;;;7.68;4.15;;;26.70;99.90;;;;;;4917857;29;20036;-47
2023/06/22 09:51:08;;;;;;;7.75;3.50;;;26.70;99.90;;;;;;4917947;29;20031;-48
2023/06/22 09:53:38;;;;;;;15.73;4.00;;;26.70;99.90;;;;;;4917867;29;20110;-47
2023/06/22 09:56:04;;;;;;;11.50;3.83;;;26.70;99.90;;;;;;4917927;29;20024;-47
2023/06/22 09:58:29;;;;;;;6.90;3.50;;;26.80;99.90;;;;;;4917766;29;20051;-47
2023/06/22 10:00:55;;;;;;;10.52;4.43;;;26.80;99.90;;;;;;4917859;29;20080;-47
2023/06/22 10:03:21;;;;;;;8.38;4.10;;;26.80;99.90;;;;;;4917423;29;20155;-47
2023/06/22 10:05:47;;;;;;;12.07;4.05;;;26.80;99.90;;;;;;4932118;29;20036;-48
2023/06/22 10:08:13;;;;;;;9.77;4.13;;;26.90;99.90;;;;;;4932110;29;20038;-47
2023/06/22 10:10:38;;;;;;;9.25;3.67;;;26.80;99.90;;;;;;4917547;29;20034;-48
2023/06/22 10:13:11;;;;;;;9.40;4.20;;;26.90;99.90;;;;;;4917673;29;20040;-47
2023/06/22 10:15:37;;;;;;;14.65;4.28;;;26.90;99.90;;;;;;4904430;29;20032;-48
2023/06/22 10:18:03;;;;;;;9.48;4.43;;;26.90;99.90;;;;;;4917189;29;20039;-48
2023/06/22 10:20:29;;;;;;;10.68;4.10;;;26.90;99.90;;;;;;4917507;29;20035;-47
2023/06/22 10:22:55;;;;;;;10.50;4.25;;;26.90;99.90;;;;;;4917675;29;20099;-47
2023/06/22 10:25:21;;;;;;;8.18;4.25;;;27.00;99.90;;;;;;4917140;29;20035;-47
2023/06/22 10:27:47;;;;;;;7.38;4.15;;;27.00;99.90;;;;;;4917364;29;20032;-47
2023/06/22 10:30:14;;;;;;;10.50;4.88;;;27.00;99.90;;;;;;4917209;29;20076;-47
2023/06/22 10:32:41;;;;;;;7.03;3.83;;;27.10;99.90;;;;;;4915883;29;20053;-48
2023/06/22 10:35:07;;;;;;;12.00;5.53;;;27.10;99.90;;;;;;4917224;29;20626;-47
2023/06/22 10:37:32;;;;;;;10.20;4.90;;;27.10;99.90;;;;;;4917268;29;20026;-47
2023/06/22 10:39:58;;;;;;;10.20;4.65;;;27.10;99.90;;;;;;4917040;29;20036;-47
2023/06/22 10:42:24;;;;;;;10.77;5.40;;;27.10;99.90;;;;;;4917225;29;20075;-47
2023/06/22 10:44:50;;;;;;;7.90;4.55;;;27.10;99.90;;;;;;4916926;29;20028;-48
2023/06/22 10:47:16;;;;;;;12.50;4.25;;;27.20;99.90;;;;;;4917002;29;20021;-47
2023/06/22 10:49:41;;;;;;;14.23;4.63;;;27.20;99.90;;;;;;4916679;29;20036;-47
2023/06/22 10:52:08;;;;;;;7.10;2.95;;;27.20;99.90;;;;;;4904363;29;20107;-47
2023/06/22 10:54:35;;;;;;;9.15;4.07;;;27.30;99.90;;;;;;4916226;29;20032;-47
2023/06/22 10:57:02;;;;;;;10.02;3.45;;;27.20;99.90;;;;;;4916861;29;20366;-47
2023/06/22 10:59:29;;;;;;;8.15;3.15;;;27.30;99.90;;;;;;4917069;29;20042;-47
2023/06/22 11:01:58;;;;;;;8.68;3.95;;;27.30;99.90;;;;;;4916743;29;20148;-48
2023/06/22 11:04:24;;;;;;;8.52;3.17;;;27.30;99.90;;;;;;4916858;29;20028;-47
2023/06/22 11:06:50;;;;;;;8.93;3.42;;;27.30;99.90;;;;;;4916514;29;20023;-48
2023/06/22 11:09:21;;;;;;;7.45;3.80;;;27.30;99.90;;;;;;4915310;29;20028;-47
2023/06/22 11:11:53;;;;;;;6.75;3.25;;;27.30;99.90;;;;;;4916482;29;20500;-46
2023/06/22 11:14:19;;;;;;;12.45;4.70;;;27.30;99.90;;;;;;4916551;29;20698;-45
2023/06/22 11:16:46;;;;;;;10.43;3.63;;;27.40;99.90;;;;;;4916197;29;20028;-47
2023/06/22 11:19:12;;;;;;;6.50;3.67;;;27.40;99.90;;;;;;4915279;29;20040;-47
2023/06/22 11:21:38;;;;;;;9.55;3.70;;;27.50;99.90;;;;;;4916303;29;20038;-47
2023/06/22 11:24:04;;;;;;;12.45;3.75;;;27.50;99.90;;;;;;4925708;29;20028;-47
2023/06/22 11:26:31;;;;;;;10.73;3.65;;;27.50;99.90;;;;;;4916013;29;20035;-46
2023/06/22 11:28:57;;;;;;;11.23;3.83;;;27.50;99.90;;;;;;4916617;29;20028;-47
2023/06/22 11:31:23;;;;;;;8.80;3.40;;;27.50;99.90;;;;;;4916009;29;20481;-47
2023/06/22 11:33:49;;;;;;;12.00;3.72;;;27.50;99.90;;;;;;4915860;29;20036;-47
2023/06/22 11:36:16;;;;;;;8.13;3.67;;;27.50;99.90;;;;;;4916100;29;20099;-47
2023/06/22 11:38:42;;;;;;;9.77;4.10;;;27.50;99.90;;;;;;4930668;29;20091;-47
2023/06/22 11:41:09;;;;;;;11.18;3.67;;;27.50;99.90;;;;;;4915960;29;20110;-47
2023/06/22 11:43:35;;;;;;;7.53;3.25;;;27.50;99.90;;;;;;4915938;29;20485;-49
2023/06/22 11:46:02;;;;;;;12.18;4.78;;;27.50;99.90;;;;;;4916139;29;20397;-48
2023/06/22 11:48:29;;;;;;;12.85;4.22;;;27.50;99.90;;;;;;4916115;29;20016;-48
2023/06/22 11:50:55;;;;;;;13.10;4.72;;;27.60;99.90;;;;;;4916126;29;20036;-48
2023/06/22 11:53:26;;;;;;;9.50;3.60;;;27.60;99.90;;;;;;4930693;29;20028;-48
2023/06/22 11:55:53;;;;;;;9.85;3.55;;;27.60;99.90;;;;;;4915948;29;20039;-49
2023/06/22 11:58:19;;;;;;;11.77;4.15;;;27.60;99.90;;;;;;4915593;29;20025;-49
2023/06/22 12:00:45;;;;;;;10.15;3.65;;;27.60;99.90;;;;;;4915800;29;20140;-49
2023/06/22 12:03:11;;;;;;;7.10;3.38;;;27.60;99.90;;;;;;4915797;29;20020;-49
2023/06/22 12:05:38;;;;;;;10.00;3.25;;;27.70;99.90;;;;;;4915653;29;20062;-48
2023/06/22 12:08:04;;;;;;;10.70;4.00;;;27.70;99.90;;;;;;4915792;29;20376;-48
2023/06/22 12:10:30;;;;;;;9.50;4.45;;;27.80;99.90;;;;;;4915784;29;20353;-47
2023/06/22 12:12:59;;;;;;;7.45;3.10;;;27.80;99.90;;;;;;4915705;29;20474;-47
2023/06/22 12:15:26;;;;;;;8.93;3.30;;;27.80;99.90;;;;;;4915709;29;20024;-47
2023/06/22 12:17:52;;;;;;;7.18;3.28;;;27.80;99.90;;;;;;4914234;29;20158;-47
2023/06/22 12:20:18;;;;;;;10.13;3.28;;;27.90;99.90;;;;;;4903370;29;20020;-48
2023/06/22 12:22:44;;;;;;;8.82;4.20;;;27.90;99.90;;;;;;4915163;29;20025;-47
2023/06/22 12:25:10;;;;;;;11.50;3.10;;;27.90;99.90;;;;;;4914340;29;20028;-47
2023/06/22 12:27:37;;;;;;;10.88;3.90;;;27.90;99.90;;;;;;4930007;29;20024;-48
2023/06/22 12:30:03;;;;;;;9.48;4.10;;;27.90;99.90;;;;;;4915872;29;20052;-48
2023/06/22 12:32:30;;;;;;;9.68;4.22;;;27.90;99.90;;;;;;4915443;29;20036;-49
2023/06/22 12:34:56;;;;;;;9.90;3.60;;;27.90;99.90;;;;;;4915096;29;20024;-47
2023/06/22 12:37:22;;;;;;;7.95;3.65;;;27.90;99.90;;;;;;4915569;29;20031;-49
2023/06/22 12:39:48;;;;;;;12.27;4.25;;;27.90;99.90;;;;;;4914812;29;20040;-48
2023/06/22 12:42:15;;;;;;;8.18;3.65;;;28.00;99.90;;;;;;4929408;29;20024;-48
2023/06/22 12:44:41;;;;;;;12.18;4.90;;;28.00;99.90;;;;;;4915483;29;20481;-47
2023/06/22 12:47:11;;;;;;;11.70;4.72;;;28.00;99.90;;;;;;4915346;29;20046;-47